createdAt,value
2022-08-14T00:00:26.740Z,6.90
2022-08-14T00:03:31.183Z,6.12
2022-08-14T00:06:28.334Z,6.58
2022-08-14T00:09:08.057Z,6.92
2022-08-14T00:11:56.959Z,7.10
2022-08-14T00:14:44.484Z,7.67
2022-08-14T00:17:34.813Z,6.83
2022-08-14T00:20:31.084Z,7.10
2022-08-14T00:23:17.319Z,6.97
2022-08-14T00:26:06.591Z,6.83
2022-08-14T00:28:54.482Z,6.72
2022-08-14T00:31:45.771Z,7.17
2022-08-14T00:34:37.663Z,7.67
2022-08-14T00:37:20.062Z,6.65
2022-08-14T00:40:27.643Z,7.28
2022-08-14T00:42:58.240Z,7.22
2022-08-14T00:45:52.536Z,7.55
2022-08-14T00:48:38.245Z,7.47
2022-08-14T00:51:25.664Z,6.42
2022-08-14T00:54:21.496Z,6.95
2022-08-14T00:57:06.028Z,6.72
2022-08-14T00:59:53.555Z,7.35
2022-08-14T01:02:44.272Z,7.15
2022-08-14T01:05:41.768Z,7.70
2022-08-14T01:08:51.495Z,7.35
2022-08-14T01:11:19.541Z,7.33
2022-08-14T01:14:25.202Z,7.25
2022-08-14T01:16:55.573Z,7.22
2022-08-14T01:20:01.345Z,7.20
2022-08-14T01:22:51.413Z,7.87
2022-08-14T01:25:40.166Z,7.58
2022-08-14T01:28:46.601Z,7.20
2022-08-14T01:31:19.741Z,7.08
2022-08-14T01:35:17.180Z,7.37
2022-08-14T01:36:57.470Z,7.20
2022-08-14T01:39:45.431Z,7.25
2022-08-14T01:42:36.199Z,7.47
2022-08-14T01:45:25.580Z,7.83
2022-08-14T01:48:13.327Z,7.50
2022-08-14T01:51:03.662Z,7.30
2022-08-14T01:53:55.632Z,7.67
2022-08-14T01:56:44.712Z,7.50
2022-08-14T01:59:37.489Z,6.90
2022-08-14T02:02:24.123Z,7.37
2022-08-14T02:05:14.036Z,7.28
2022-08-14T02:08:09.847Z,6.95
2022-08-14T02:10:52.371Z,7.42
2022-08-14T02:13:40.220Z,7.60
2022-08-14T02:16:33.460Z,7.28
2022-08-14T02:19:27.163Z,7.92
2022-08-14T02:22:16.336Z,7.53
2022-08-14T02:25:05.739Z,7.55
2022-08-14T02:28:23.428Z,7.58
2022-08-14T02:30:44.569Z,7.62
2022-08-14T02:33:33.551Z,8.13
2022-08-14T02:37:05.096Z,7.58
2022-08-14T02:39:11.868Z,7.70
2022-08-14T02:42:01.053Z,7.22
2022-08-14T02:44:50.084Z,7.28
2022-08-14T02:47:39.073Z,8.28
2022-08-14T02:50:28.197Z,7.53
2022-08-14T02:53:17.097Z,8.15
2022-08-14T02:56:29.546Z,7.60
2022-08-14T02:58:55.649Z,8.18
2022-08-14T03:01:50.954Z,8.15
2022-08-14T03:04:31.935Z,7.60
2022-08-14T03:07:20.171Z,8.05
2022-08-14T03:10:28.037Z,7.75
2022-08-14T03:12:59.083Z,8.33
2022-08-14T03:15:50.929Z,8.33
2022-08-14T03:18:41.526Z,8.08
2022-08-14T03:21:34.293Z,9.23
2022-08-14T03:24:23.759Z,8.28
2022-08-14T03:27:12.770Z,8.40
2022-08-14T03:30:00.407Z,9.28
2022-08-14T03:32:49.249Z,9.20
2022-08-14T03:36:05.699Z,8.98
2022-08-14T03:39:13.788Z,8.85
2022-08-14T03:41:25.467Z,9.15
2022-08-14T03:45:27.428Z,9.35
2022-08-14T03:47:03.178Z,8.83
2022-08-14T03:49:50.605Z,9.20
2022-08-14T03:52:40.826Z,8.90
2022-08-14T03:55:28.665Z,9.35
2022-08-14T03:58:23.813Z,9.58
2022-08-14T04:01:07.010Z,9.48
2022-08-14T04:03:58.384Z,8.88
2022-08-14T04:06:48.541Z,8.90
2022-08-14T04:09:35.322Z,9.03
2022-08-14T04:12:26.467Z,9.68
2022-08-14T04:15:14.994Z,10.25
2022-08-14T04:18:08.498Z,9.80
2022-08-14T04:20:58.113Z,9.35
2022-08-14T04:23:49.062Z,10.03
2022-08-14T04:26:41.989Z,8.93
2022-08-14T04:29:26.034Z,10.58
2022-08-14T04:33:00.248Z,10.48
2022-08-14T04:35:07.515Z,9.78
2022-08-14T04:38:35.980Z,9.88
2022-08-14T04:41:18.743Z,10.78
2022-08-14T04:44:07.423Z,10.00
2022-08-14T04:47:14.879Z,10.13
2022-08-14T04:50:04.497Z,9.85
2022-08-14T04:52:53.987Z,10.35
2022-08-14T04:55:42.878Z,10.18
2022-08-14T04:58:33.820Z,10.30
2022-08-14T05:01:21.083Z,10.10
2022-08-14T05:04:08.762Z,10.18
2022-08-14T05:06:57.711Z,10.72
2022-08-14T05:09:48.029Z,9.85
2022-08-14T05:13:12.655Z,11.00
2022-08-14T05:15:22.968Z,9.80
2022-08-14T05:18:17.298Z,9.90
2022-08-14T05:22:00.241Z,10.13
2022-08-14T05:23:56.497Z,10.08
2022-08-14T05:26:46.192Z,9.80
2022-08-14T05:29:35.215Z,10.68
2022-08-14T05:32:27.440Z,10.32
2022-08-14T05:35:12.996Z,10.25
2022-08-14T05:38:10.713Z,10.28
2022-08-14T05:40:53.013Z,9.68
2022-08-14T05:43:42.744Z,9.90
2022-08-14T05:46:31.956Z,9.90
2022-08-14T05:49:20.614Z,9.35
2022-08-14T05:52:09.750Z,9.50
2022-08-14T05:54:58.117Z,9.55
2022-08-14T05:57:51.180Z,10.48
2022-08-14T06:00:42.164Z,9.65
2022-08-14T06:03:29.454Z,10.15
2022-08-14T06:06:18.620Z,10.20
2022-08-14T06:09:09.690Z,10.85
2022-08-14T06:11:57.702Z,10.05
2022-08-14T06:14:45.220Z,10.10
2022-08-14T06:17:46.348Z,10.63
2022-08-14T06:20:25.083Z,9.78
2022-08-14T06:23:12.547Z,10.65
2022-08-14T06:26:01.606Z,10.95
2022-08-14T06:28:51.989Z,10.00
2022-08-14T06:31:38.318Z,9.80
2022-08-14T06:35:04.466Z,10.18
2022-08-14T06:37:17.158Z,9.68
2022-08-14T06:40:04.975Z,9.85
2022-08-14T06:42:52.989Z,10.10
2022-08-14T06:45:43.395Z,9.48
2022-08-14T06:48:32.691Z,9.80
2022-08-14T06:51:21.235Z,10.40
2022-08-14T06:54:09.961Z,9.83
2022-08-14T06:56:57.514Z,9.60
2022-08-14T06:59:45.284Z,10.75
2022-08-14T07:02:50.398Z,9.28
2022-08-14T07:05:55.967Z,9.85
2022-08-14T07:08:36.095Z,9.38
2022-08-14T07:11:23.680Z,10.20
2022-08-14T07:14:12.739Z,9.73
2022-08-14T07:17:01.892Z,9.83
2022-08-14T07:19:50.604Z,9.48
2022-08-14T07:22:56.020Z,9.45
2022-08-14T07:25:32.690Z,9.63
2022-08-14T07:28:25.512Z,10.98
2022-08-14T07:31:13.895Z,8.93
2022-08-14T07:34:04.142Z,9.63
2022-08-14T07:36:57.914Z,9.58
2022-08-14T07:39:43.977Z,9.30
2022-08-14T07:42:32.471Z,9.83
2022-08-14T07:45:20.465Z,9.50
2022-08-14T07:48:09.660Z,9.45
2022-08-14T07:51:02.985Z,9.48
2022-08-14T07:53:48.171Z,9.68
2022-08-14T07:56:48.312Z,9.38
2022-08-14T07:59:41.308Z,9.35
2022-08-14T08:02:19.583Z,9.55
2022-08-14T08:05:06.165Z,8.83
2022-08-14T08:07:54.843Z,9.10
2022-08-14T08:11:01.714Z,9.33
2022-08-14T08:13:34.774Z,9.08
2022-08-14T08:16:24.444Z,9.20
2022-08-14T08:19:14.009Z,9.20
2022-08-14T08:22:02.386Z,9.08
2022-08-14T08:24:50.338Z,9.70
2022-08-14T08:27:41.887Z,10.03
2022-08-14T08:30:31.980Z,9.90
2022-08-14T08:33:21.799Z,9.25
2022-08-14T08:36:18.644Z,8.98
2022-08-14T08:39:18.457Z,9.45
2022-08-14T08:41:53.841Z,9.33
2022-08-14T08:44:41.249Z,9.35
2022-08-14T08:47:41.379Z,9.98
2022-08-14T08:53:18.431Z,9.50
2022-08-14T08:56:06.043Z,9.70
2022-08-14T08:58:53.962Z,10.10
2022-08-14T09:01:43.038Z,9.50
2022-08-14T09:04:33.378Z,9.83
2022-08-14T09:07:20.421Z,9.90
2022-08-14T09:10:08.757Z,9.60
2022-08-14T09:12:56.217Z,8.48
2022-08-14T09:15:45.787Z,8.95
2022-08-14T09:18:33.077Z,8.80
2022-08-14T09:21:24.289Z,8.95
2022-08-14T09:24:28.555Z,8.40
2022-08-14T09:27:01.314Z,9.28
2022-08-14T09:29:54.000Z,8.48
2022-08-14T09:33:06.041Z,8.33
2022-08-14T09:36:03.364Z,8.30
2022-08-14T09:39:28.765Z,7.83
2022-08-14T09:42:35.867Z,8.05
2022-08-14T09:45:53.115Z,7.28
2022-08-14T09:48:31.399Z,6.85
2022-08-14T09:51:32.980Z,7.83
2022-08-14T09:54:22.562Z,7.55
2022-08-14T09:57:06.638Z,7.17
2022-08-14T09:59:56.268Z,7.35
2022-08-14T10:02:59.086Z,6.78
2022-08-14T10:05:48.417Z,7.25
2022-08-14T10:08:50.906Z,6.80
2022-08-14T10:11:37.953Z,7.55
2022-08-14T10:14:36.031Z,7.40
2022-08-14T10:17:38.341Z,7.20
2022-08-14T10:20:39.349Z,6.78
2022-08-14T10:23:20.194Z,6.37
2022-08-14T10:26:10.004Z,6.20
2022-08-14T10:29:17.840Z,6.15
2022-08-14T10:31:54.410Z,6.00
2022-08-14T10:34:43.386Z,5.75
2022-08-14T10:37:33.906Z,5.80
2022-08-14T10:40:37.907Z,5.95
2022-08-14T10:43:27.676Z,5.83
2022-08-14T10:47:35.894Z,5.60
2022-08-14T10:49:18.814Z,6.35
2022-08-14T10:52:09.323Z,5.72
2022-08-14T10:55:13.317Z,5.42
2022-08-14T10:58:00.633Z,5.95
2022-08-14T11:00:57.249Z,5.95
2022-08-14T11:03:56.071Z,5.58
2022-08-14T11:06:34.440Z,5.33
2022-08-14T11:09:22.459Z,5.42
2022-08-14T11:12:34.595Z,5.90
2022-08-14T11:15:03.152Z,5.62
2022-08-14T11:17:51.667Z,5.60
2022-08-14T11:20:40.235Z,5.80
2022-08-14T11:23:38.101Z,5.47
2022-08-14T11:26:20.423Z,5.95
2022-08-14T11:29:10.829Z,5.62
2022-08-14T11:32:00.137Z,5.35
2022-08-14T11:34:48.092Z,5.70
2022-08-14T11:37:40.627Z,5.62
2022-08-14T11:40:28.768Z,5.22
2022-08-14T11:43:17.458Z,5.20
2022-08-14T11:46:06.526Z,5.53
2022-08-14T11:49:02.800Z,5.40
2022-08-14T11:51:53.896Z,4.72
2022-08-14T11:54:36.175Z,4.55
2022-08-14T11:57:25.687Z,4.90
2022-08-14T12:00:19.517Z,4.72
2022-08-14T12:03:06.297Z,4.28
2022-08-14T12:05:55.468Z,4.80
2022-08-14T12:08:50.954Z,4.50
2022-08-14T12:11:44.154Z,4.55
2022-08-14T12:14:35.157Z,3.80
2022-08-14T12:17:23.902Z,3.83
2022-08-14T12:20:11.497Z,3.90
2022-08-14T12:23:02.176Z,3.77
2022-08-14T12:25:59.474Z,3.83
2022-08-14T12:28:59.648Z,4.20
2022-08-14T12:31:28.531Z,4.08
2022-08-14T12:34:20.015Z,3.70
2022-08-14T12:37:10.650Z,3.87
2022-08-14T12:40:11.023Z,3.55
2022-08-14T12:43:06.302Z,4.00
2022-08-14T12:45:55.687Z,3.58
2022-08-14T12:48:47.078Z,3.58
2022-08-14T12:51:35.879Z,3.70
2022-08-14T12:54:28.548Z,4.78
2022-08-14T12:57:19.901Z,10.03
2022-08-14T13:00:22.869Z,3.90
2022-08-14T13:03:08.177Z,3.70
2022-08-14T13:05:56.727Z,3.85
2022-08-14T13:08:53.241Z,3.50
2022-08-14T13:11:45.707Z,3.20
2022-08-14T13:14:36.269Z,3.70
2022-08-14T13:17:26.882Z,3.92
2022-08-14T13:20:24.493Z,3.30
2022-08-14T13:23:07.292Z,3.60
2022-08-14T13:25:55.732Z,3.47
2022-08-14T13:29:02.353Z,3.52
2022-08-14T13:31:34.490Z,3.60
2022-08-14T13:34:24.645Z,3.87
2022-08-14T13:37:12.227Z,4.12
2022-08-14T13:40:01.458Z,4.97
2022-08-14T13:42:56.772Z,4.62
2022-08-14T13:46:00.602Z,3.60
2022-08-14T13:48:36.388Z,4.17
2022-08-14T13:51:26.794Z,3.90
2022-08-14T13:54:20.057Z,3.95
2022-08-14T13:57:11.472Z,3.92
2022-08-14T14:00:02.942Z,4.12
2022-08-14T14:02:51.360Z,3.77
2022-08-14T14:05:52.962Z,3.33
2022-08-14T14:08:46.355Z,3.90
2022-08-14T14:11:23.686Z,3.80
2022-08-14T14:14:44.832Z,4.30
2022-08-14T14:17:01.801Z,3.83
2022-08-14T14:19:49.452Z,4.03
2022-08-14T14:23:01.781Z,3.98
2022-08-14T14:25:45.849Z,4.30
2022-08-14T14:28:24.584Z,3.83
2022-08-14T14:31:12.737Z,4.47
2022-08-14T14:34:07.325Z,4.28
2022-08-14T14:36:55.719Z,4.53
2022-08-14T14:40:53.138Z,4.25
2022-08-14T14:42:35.401Z,4.72
2022-08-14T14:45:24.551Z,4.67
2022-08-14T14:48:13.730Z,4.33
2022-08-14T14:51:03.008Z,4.33
2022-08-14T14:53:52.627Z,4.00
2022-08-14T14:56:48.073Z,4.30
2022-08-14T14:59:35.935Z,4.58
2022-08-14T15:02:41.358Z,4.87
2022-08-14T15:05:30.444Z,4.40
2022-08-14T15:08:26.813Z,4.53
2022-08-14T15:11:13.421Z,5.20
2022-08-14T15:13:57.653Z,4.90
2022-08-14T15:16:45.111Z,4.53
2022-08-14T15:19:32.779Z,4.62
2022-08-14T15:22:20.700Z,4.80
2022-08-14T15:25:13.343Z,4.67
2022-08-14T15:28:02.696Z,4.80
2022-08-14T15:30:58.903Z,4.65
2022-08-14T15:34:00.950Z,4.47
2022-08-14T15:36:48.632Z,4.78
2022-08-14T15:39:38.488Z,4.42
2022-08-14T15:42:25.267Z,4.62
2022-08-14T15:45:17.913Z,4.90
2022-08-14T15:48:07.910Z,4.85
2022-08-14T15:50:56.811Z,4.05
2022-08-14T15:53:46.789Z,4.83
2022-08-14T15:56:42.860Z,4.85
2022-08-14T15:59:23.040Z,4.53
2022-08-14T16:02:10.457Z,4.55
2022-08-14T16:04:58.975Z,4.62
2022-08-14T16:07:46.726Z,4.33
2022-08-14T16:10:33.956Z,4.37
2022-08-14T16:13:39.529Z,4.75
2022-08-14T16:16:47.829Z,4.70
2022-08-14T16:19:10.686Z,4.65
2022-08-14T16:22:58.274Z,4.78
2022-08-14T16:27:45.876Z,4.75
2022-08-14T16:30:33.519Z,5.08
2022-08-14T16:33:28.012Z,5.37
2022-08-14T16:36:30.098Z,4.80
2022-08-14T16:39:08.216Z,4.80
2022-08-14T16:41:59.101Z,4.60
2022-08-14T16:44:50.508Z,5.35
2022-08-14T16:47:40.065Z,4.60
2022-08-14T16:50:43.191Z,4.72
2022-08-14T16:53:19.218Z,4.50
2022-08-14T16:56:23.453Z,4.97
2022-08-14T16:59:12.108Z,5.85
2022-08-14T17:02:01.434Z,5.90
2022-08-14T17:04:50.199Z,5.40
2022-08-14T17:07:38.888Z,5.35
2022-08-14T17:10:28.303Z,5.72
2022-08-14T17:13:58.009Z,5.25
2022-08-14T17:16:23.976Z,6.22
2022-08-14T17:19:09.974Z,6.12
2022-08-14T17:22:00.601Z,5.42
2022-08-14T17:24:56.935Z,5.83
2022-08-14T17:27:37.791Z,5.40
2022-08-14T17:30:32.436Z,5.70
2022-08-14T17:33:15.932Z,6.40
2022-08-14T17:36:22.573Z,5.55
2022-08-14T17:39:13.453Z,6.08
2022-08-14T17:42:03.561Z,5.45
2022-08-14T17:44:55.056Z,5.97
2022-08-14T17:47:44.050Z,6.12
2022-08-14T17:50:59.943Z,5.28
2022-08-14T17:53:39.198Z,5.35
2022-08-14T17:56:30.851Z,5.50
2022-08-14T17:59:19.790Z,5.65
2022-08-14T18:02:10.161Z,5.35
2022-08-14T18:05:02.805Z,6.03
2022-08-14T18:08:33.201Z,5.75
2022-08-14T18:10:56.106Z,5.80
2022-08-14T18:13:49.709Z,5.90
2022-08-14T18:16:22.386Z,5.80
2022-08-14T18:19:12.091Z,6.17
2022-08-14T18:22:03.894Z,5.75
2022-08-14T18:24:51.406Z,5.87
2022-08-14T18:27:44.382Z,5.55
2022-08-14T18:30:40.604Z,6.62
2022-08-14T18:33:23.166Z,6.03
2022-08-14T18:36:46.273Z,5.60
2022-08-14T18:39:22.771Z,5.92
2022-08-14T18:42:23.515Z,6.17
2022-08-14T18:45:18.901Z,5.87
2022-08-14T18:48:28.533Z,5.78
2022-08-14T18:51:12.842Z,5.72
2022-08-14T18:54:02.304Z,6.50
2022-08-14T18:57:00.866Z,5.87
2022-08-14T18:59:48.690Z,6.30
2022-08-14T19:02:43.472Z,5.90
2022-08-14T19:05:40.389Z,5.70
2022-08-14T19:08:40.651Z,6.30
2022-08-14T19:11:50.328Z,5.75
2022-08-14T19:14:48.475Z,5.80
2022-08-14T19:18:14.996Z,6.35
2022-08-14T19:20:53.334Z,6.05
2022-08-14T19:23:44.044Z,5.70
2022-08-14T19:26:35.606Z,5.87
2022-08-14T19:29:25.563Z,6.40
2022-08-14T19:32:36.987Z,6.33
2022-08-14T19:35:39.743Z,6.05
2022-08-14T19:38:48.269Z,6.42
2022-08-14T19:41:40.508Z,6.15
2022-08-14T19:44:32.037Z,5.45
2022-08-14T19:47:41.460Z,5.80
2022-08-14T19:50:40.483Z,5.97
2022-08-14T19:53:20.802Z,6.17
2022-08-14T19:56:08.506Z,5.90
2022-08-14T19:58:57.569Z,6.45
2022-08-14T20:01:44.708Z,6.17
2022-08-14T20:04:47.576Z,6.20
2022-08-14T20:07:59.403Z,6.20
2022-08-14T20:11:12.722Z,6.33
2022-08-14T20:13:32.617Z,6.15
2022-08-14T20:16:21.236Z,5.70
2022-08-14T20:19:24.730Z,6.00
2022-08-14T20:22:37.329Z,5.53
2022-08-14T20:25:20.726Z,5.47
2022-08-14T20:28:29.052Z,5.45
2022-08-14T20:31:17.766Z,5.47
2022-08-14T20:34:18.593Z,5.58
2022-08-14T20:37:19.818Z,5.97
2022-08-14T20:40:23.383Z,5.50
2022-08-14T20:43:40.880Z,5.53
2022-08-14T20:46:32.275Z,5.75
2022-08-14T20:49:23.647Z,6.12
2022-08-14T20:52:19.876Z,5.53
2022-08-14T20:55:02.300Z,5.30
2022-08-14T20:57:54.781Z,5.90
2022-08-14T21:00:51.829Z,6.40
2022-08-14T21:03:37.538Z,6.10
2022-08-14T21:07:23.012Z,5.85
2022-08-14T21:10:04.566Z,5.87
2022-08-14T21:12:34.221Z,5.92
2022-08-14T21:15:10.253Z,5.20
2022-08-14T21:17:57.728Z,5.80
2022-08-14T21:20:46.419Z,5.42
2022-08-14T21:23:36.467Z,5.65
2022-08-14T21:26:33.354Z,6.33
2022-08-14T21:29:18.040Z,5.72
2022-08-14T21:32:20.300Z,5.58
2022-08-14T21:34:56.433Z,5.58
2022-08-14T21:37:46.040Z,5.42
2022-08-14T21:40:42.146Z,5.78
2022-08-14T21:43:26.329Z,5.65
2022-08-14T21:46:16.016Z,6.08
2022-08-14T21:49:11.388Z,5.95
2022-08-14T21:52:48.843Z,6.03
2022-08-14T21:54:52.082Z,6.20
2022-08-14T21:58:51.082Z,5.87
2022-08-14T22:00:39.615Z,5.33
2022-08-14T22:03:26.330Z,5.65
2022-08-14T22:06:19.510Z,5.70
2022-08-14T22:09:06.812Z,6.37
2022-08-14T22:11:56.659Z,5.80
2022-08-14T22:14:45.281Z,5.45
2022-08-14T22:17:34.386Z,6.30
2022-08-14T22:20:24.996Z,5.75
2022-08-14T22:23:13.381Z,5.83
2022-08-14T22:26:00.654Z,5.90
2022-08-14T22:28:49.507Z,6.10
2022-08-14T22:31:43.902Z,5.40
2022-08-14T22:34:32.090Z,5.58
2022-08-14T22:37:19.500Z,5.85
2022-08-14T22:40:46.145Z,6.15
2022-08-14T22:43:01.258Z,5.15
2022-08-14T22:45:55.512Z,6.12
2022-08-14T22:48:38.980Z,5.47
2022-08-14T22:51:27.541Z,5.75
2022-08-14T22:54:52.680Z,5.62
2022-08-14T22:57:06.341Z,5.58
2022-08-14T22:59:55.296Z,5.72
2022-08-14T23:02:43.554Z,5.67
2022-08-14T23:05:40.072Z,5.37
2022-08-14T23:08:59.358Z,5.55
2022-08-14T23:11:11.413Z,5.50
2022-08-14T23:14:00.953Z,6.08
2022-08-14T23:16:48.614Z,5.60
2022-08-14T23:19:36.105Z,4.97
2022-08-14T23:22:24.239Z,5.40
2022-08-14T23:25:17.773Z,5.42
2022-08-14T23:28:05.310Z,5.28
2022-08-14T23:30:55.260Z,5.65
2022-08-14T23:33:46.020Z,6.10
2022-08-14T23:36:38.031Z,5.30
2022-08-14T23:39:30.397Z,6.10
2022-08-14T23:42:17.981Z,5.37
2022-08-14T23:45:07.374Z,5.67
2022-08-14T23:47:54.520Z,5.40
2022-08-14T23:50:44.438Z,5.50
2022-08-14T23:53:47.944Z,5.67
2022-08-14T23:56:31.906Z,5.03
2022-08-14T23:59:15.952Z,5.40
